Summitville, Ohio
Current Conditions -  °F | °C
As of 8:47 AM on Saturday 25 Oct 2014 (Local Time) from KBVI Reporting Station
Overcast Overcast  
Wind Chill: 46°   Ceiling: 3500
Heat Index: 48°   Visibility: 10mi
Dew Point: 41°   Wind: 5mph
Humidity: 76%   Direction: 190°S
Pressure: 29.95"   Gusts: NA
Location:  40.68°N, 80.89°W
Report Text: KBVI 251247Z 19004KT 10SM OVC035 09/05 A2995
Loading
Personal Weather Stations






























Interactive Weather Map
Tropical Storm Tracking
New forecast layout! Learn more

10-Day Weather Forecast

Advertisements
Track Severe Weather on mobile